Time;durP1;ratioP1;P1;durP2;ratioP2;P2;SDS_P1;SDS_P2;PMS_P1;PMS_P2;Temp;Humidity;BMP_temperature;BMP_pressure;BME280_temperature;BME280_humidity;BME280_pressure;Samples;Min_cycle;Max_cycle;Signal;HPM_P1;HPM_P2
2022/03/16 00:00:36;;;;;;;3.33;1.92;;;;;;;0.55;67.64;102414.95;1863931;77;21202;-59
2022/03/16 00:03:06;;;;;;;3.75;1.80;;;;;;;0.51;67.70;102421.27;1859585;77;21170;-62
2022/03/16 00:05:35;;;;;;;3.35;1.95;;;;;;;0.46;67.71;102413.37;1857419;77;21101;-63
2022/03/16 00:08:04;;;;;;;6.05;2.45;;;;;;;0.41;67.92;102403.68;1862310;77;21146;-64
2022/03/16 00:13:21;;;;;;;5.15;2.35;;;;;;;0.32;68.04;102410.36;1907062;75;21105;-62
2022/03/16 00:15:52;;;;;;;3.55;1.52;;;;;;;0.30;68.00;102413.75;1923778;73;21084;-60
2022/03/16 00:18:20;;;;;;;5.12;1.98;;;;;;;0.25;67.98;102409.71;1936849;73;21475;-60
2022/03/16 00:20:49;;;;;;;3.55;1.67;;;;;;;0.18;68.11;102409.97;1962988;73;21032;-59
2022/03/16 00:23:18;;;;;;;4.92;2.30;;;;;;;0.19;68.08;102409.54;1936291;73;21095;-58
2022/03/16 00:25:46;;;;;;;2.98;1.77;;;;;;;0.19;67.98;102411.70;1932347;74;21085;-60
2022/03/16 00:28:15;;;;;;;3.40;1.65;;;;;;;0.19;67.92;102412.13;1915614;74;21052;-58
2022/03/16 00:30:44;;;;;;;2.65;1.40;;;;;;;0.19;67.84;102403.06;1893998;76;21072;-59
2022/03/16 00:33:13;;;;;;;1.95;1.32;;;;;;;0.16;67.79;102409.01;1894268;76;21552;-58
2022/03/16 00:35:41;;;;;;;6.25;2.10;;;;;;;0.19;67.74;102408.25;1893852;76;21475;-57
2022/03/16 00:38:13;;;;;;;3.58;1.47;;;;;;;0.18;67.71;102408.67;1895121;73;21115;-57
2022/03/16 00:40:41;;;;;;;3.40;1.62;;;;;;;0.19;67.71;102409.54;1928912;74;21020;-58
2022/03/16 00:43:09;;;;;;;3.17;1.57;;;;;;;0.24;67.66;102404.48;1903723;74;21064;-57
2022/03/16 00:45:38;;;;;;;4.65;2.33;;;;;;;0.24;67.65;102407.97;1893929;76;21492;-58
2022/03/16 00:48:07;;;;;;;4.70;2.77;;;;;;;0.20;67.74;102406.09;1955726;73;21110;-60
2022/03/16 00:50:37;;;;;;;4.85;2.25;;;;;;;0.12;67.87;102403.28;1962922;73;21526;-60
2022/03/16 00:53:06;;;;;;;3.40;1.60;;;;;;;0.10;67.85;102410.13;1900649;73;21296;-59
2022/03/16 00:55:34;;;;;;;3.95;2.70;;;;;;;0.11;67.77;102407.11;1894014;76;21038;-59
2022/03/16 00:58:03;;;;;;;2.55;1.52;;;;;;;0.06;67.81;102412.17;1894071;76;21508;-57
2022/03/16 01:00:32;;;;;;;4.53;1.82;;;;;;;0.06;67.79;102411.30;1893931;76;21124;-57
2022/03/16 01:03:01;;;;;;;5.03;2.12;;;;;;;0.02;67.77;102417.19;1895174;73;21037;-57
2022/03/16 01:05:30;;;;;;;5.10;2.05;;;;;;;0.02;67.75;102417.19;1893947;76;21520;-58
2022/03/16 01:07:59;;;;;;;2.25;1.27;;;;;;;0.03;67.72;102417.67;1893919;76;21143;-58
2022/03/16 01:10:27;;;;;;;3.55;1.17;;;;;;;0.01;67.68;102418.91;1911202;74;21055;-58
2022/03/16 01:12:56;;;;;;;2.17;1.47;;;;;;;-0.04;67.60;102422.66;1928934;74;21141;-58
2022/03/16 01:15:25;;;;;;;3.52;1.70;;;;;;;-0.05;67.61;102422.19;1932207;74;21166;-58
2022/03/16 01:17:53;;;;;;;18.12;5.58;;;;;;;-0.07;67.58;102425.14;1932132;74;21529;-57
2022/03/16 01:20:23;;;;;;;2.92;1.80;;;;;;;-0.10;67.49;102428.92;1928942;74;21120;-58
2022/03/16 01:22:51;;;;;;;3.85;1.55;;;;;;;-0.16;67.48;102421.39;1928797;74;21112;-58
2022/03/16 01:25:20;;;;;;;3.40;1.35;;;;;;;-0.19;67.52;102422.16;1928825;74;21042;-58
2022/03/16 01:27:49;;;;;;;4.17;1.45;;;;;;;-0.21;67.44;102421.23;1928866;74;21481;-58
2022/03/16 01:30:18;;;;;;;2.77;1.67;;;;;;;-0.23;67.38;102423.77;1928785;74;21046;-58
2022/03/16 01:32:47;;;;;;;3.87;1.85;;;;;;;-0.25;67.35;102425.42;1928821;74;21114;-58
2022/03/16 01:35:16;;;;;;;1.02;0.78;;;;;;;-0.25;67.26;102425.85;1928723;74;21128;-57
2022/03/16 01:37:45;;;;;;;3.35;1.47;;;;;;;-0.27;67.20;102433.98;1928848;74;21547;-54
2022/03/16 01:40:14;;;;;;;4.95;2.05;;;;;;;-0.30;67.18;102433.87;1928680;74;21470;-59
2022/03/16 01:42:43;;;;;;;4.37;1.43;;;;;;;-0.31;67.16;102428.25;1929038;74;21504;-58
2022/03/16 01:45:11;;;;;;;3.45;1.22;;;;;;;-0.32;67.10;102432.95;1928336;74;21040;-59
2022/03/16 01:47:40;;;;;;;3.02;1.30;;;;;;;-0.33;67.05;102436.34;1927451;74;21486;-59
2022/03/16 01:50:09;;;;;;;3.67;1.35;;;;;;;-0.39;67.05;102434.44;1928796;74;21454;-59
2022/03/16 01:52:40;;;;;;;1.65;1.15;;;;;;;-0.41;67.07;102441.27;1927288;74;21053;-61
2022/03/16 01:55:09;;;;;;;3.15;1.62;;;;;;;-0.43;67.05;102442.52;1926295;73;21103;-59
2022/03/16 01:57:42;;;;;;;5.87;2.02;;;;;;;-0.46;67.10;102438.55;1928146;73;21036;-58
2022/03/16 02:00:11;;;;;;;2.92;1.37;;;;;;;-0.46;67.16;102441.14;1932539;74;21064;-58
2022/03/16 02:02:40;;;;;;;3.27;1.62;;;;;;;-0.45;67.25;102444.59;1932345;74;21503;-58
2022/03/16 02:05:09;;;;;;;4.95;2.30;;;;;;;-0.47;67.47;102443.25;1932287;74;21125;-59
2022/03/16 02:07:39;;;;;;;7.62;2.90;;;;;;;-0.47;67.47;102448.42;1932405;74;21157;-57
2022/03/16 02:10:08;;;;;;;4.45;1.87;;;;;;;-0.48;67.50;102447.98;1931031;74;21476;-58
2022/03/16 02:12:45;;;;;;;5.15;2.65;;;;;;;-0.48;67.54;102455.73;1932967;74;21058;-58
2022/03/16 02:15:14;;;;;;;4.37;2.20;;;;;;;-0.45;67.49;102450.64;1943932;73;21502;-59
2022/03/16 02:17:43;;;;;;;6.50;2.15;;;;;;;-0.48;67.57;102454.83;1911033;75;21108;-58
2022/03/16 02:20:12;;;;;;;5.83;2.33;;;;;;;-0.50;67.64;102449.64;1911163;75;21014;-58
2022/03/16 02:23:04;;;;;;;3.12;1.80;;;;;;;-0.48;67.65;102449.66;1911256;75;20990;-58
2022/03/16 02:25:35;;;;;;;9.20;2.80;;;;;;;-0.52;67.77;102452.98;1911097;75;21018;-59
2022/03/16 02:28:04;;;;;;;4.90;1.92;;;;;;;-0.57;67.73;102450.25;1909945;74;21465;-59
2022/03/16 02:30:33;;;;;;;5.00;1.50;;;;;;;-0.62;67.88;102455.25;1911114;75;21031;-60
2022/03/16 02:33:01;;;;;;;3.27;1.47;;;;;;;-0.63;67.95;102444.84;1911137;75;21096;-60
2022/03/16 02:35:31;;;;;;;5.00;2.12;;;;;;;-0.65;67.93;102451.67;1911199;75;21074;-61
2022/03/16 02:38:01;;;;;;;3.83;2.22;;;;;;;-0.72;68.09;102445.81;1911298;75;21030;-61
2022/03/16 02:40:30;;;;;;;4.62;2.47;;;;;;;-0.73;67.94;102443.66;1911101;75;21074;-60
2022/03/16 02:42:59;;;;;;;3.67;2.10;;;;;;;-0.77;68.02;102449.55;1911085;75;21543;-61
2022/03/16 02:45:28;;;;;;;5.62;2.00;;;;;;;-0.82;68.09;102454.55;1911087;75;21453;-60
2022/03/16 02:47:57;;;;;;;8.10;2.17;;;;;;;-0.86;68.08;102463.03;1911168;75;21606;-60
2022/03/16 02:50:25;;;;;;;5.87;2.22;;;;;;;-0.91;68.16;102464.56;1911100;75;21086;-60
2022/03/16 02:52:54;;;;;;;3.70;1.72;;;;;;;-0.93;68.24;102459.76;1911212;75;21046;-60
2022/03/16 02:55:23;;;;;;;6.80;2.85;;;;;;;-0.97;68.25;102458.77;1911170;74;21155;-61
2022/03/16 02:57:51;;;;;;;3.27;1.82;;;;;;;-0.99;68.26;102466.89;1911258;75;21022;-60
2022/03/16 03:00:20;;;;;;;5.17;2.30;;;;;;;-1.01;68.37;102472.84;1910987;75;21086;-60
2022/03/16 03:02:49;;;;;;;4.28;1.90;;;;;;;-1.07;68.46;102476.08;1911110;75;21485;-59
2022/03/16 03:05:18;;;;;;;6.35;2.08;;;;;;;-1.12;68.45;102472.86;1911048;75;21531;-58
2022/03/16 03:07:47;;;;;;;4.83;2.00;;;;;;;-1.13;68.43;102476.25;1911012;74;21925;-59
2022/03/16 03:10:16;;;;;;;5.30;2.20;;;;;;;-1.14;68.43;102469.31;1917448;74;21634;-59
2022/03/16 03:12:44;;;;;;;6.87;2.50;;;;;;;-1.15;68.40;102474.03;1926153;74;21038;-58
2022/03/16 03:15:14;;;;;;;4.92;1.92;;;;;;;-1.19;68.37;102479.08;1926151;74;21097;-58
2022/03/16 03:17:43;;;;;;;1.95;1.27;;;;;;;-1.23;68.46;102479.80;1928164;74;21599;-58
2022/03/16 03:20:14;;;;;;;6.33;2.17;;;;;;;-1.21;68.43;102480.73;1928571;74;21039;-60
2022/03/16 03:22:43;;;;;;;3.55;1.52;;;;;;;-1.25;68.34;102478.86;1928803;74;21063;-59
2022/03/16 03:25:13;;;;;;;6.33;2.52;;;;;;;-1.26;68.32;102482.25;1928651;74;21011;-59
2022/03/16 03:27:42;;;;;;;6.25;2.85;;;;;;;-1.32;68.23;102488.49;1928837;74;21031;-60
2022/03/16 03:30:12;;;;;;;5.47;2.77;;;;;;;-1.42;68.21;102485.08;1928600;74;21450;-60
2022/03/16 03:32:40;;;;;;;4.60;2.60;;;;;;;-1.53;68.17;102492.44;1928822;74;21426;-60
2022/03/16 03:35:10;;;;;;;6.67;2.87;;;;;;;-1.61;68.17;102494.70;1928717;74;21089;-60
2022/03/16 03:37:38;;;;;;;6.28;2.42;;;;;;;-1.69;68.22;102498.70;1928835;74;21043;-59
2022/03/16 03:40:08;;;;;;;5.03;1.85;;;;;;;-1.79;68.30;102501.72;1928748;74;21656;-61
2022/03/16 03:42:37;;;;;;;3.33;1.77;;;;;;;-1.89;68.37;102502.19;1928826;74;21027;-58
2022/03/16 03:45:06;;;;;;;3.52;2.02;;;;;;;-1.96;68.39;102500.63;1928908;74;21032;-59
2022/03/16 03:47:35;;;;;;;3.83;2.08;;;;;;;-2.02;68.43;102506.84;1928672;74;21105;-58
2022/03/16 03:50:04;;;;;;;4.80;2.37;;;;;;;-2.08;68.45;102505.31;1928762;74;21030;-59
2022/03/16 03:52:33;;;;;;;7.40;3.17;;;;;;;-2.12;68.45;102504.72;1928849;74;21012;-58
2022/03/16 03:55:01;;;;;;;5.60;2.40;;;;;;;-2.12;68.50;102503.43;1928749;74;21034;-58
2022/03/16 03:57:30;;;;;;;3.62;2.25;;;;;;;-2.07;68.49;102503.19;1928939;74;21121;-58
2022/03/16 03:59:59;;;;;;;2.17;1.35;;;;;;;-1.99;68.44;102509.56;1928713;74;21050;-59
2022/03/16 04:02:28;;;;;;;3.70;1.95;;;;;;;-1.87;68.31;102507.87;1928764;74;21054;-59
2022/03/16 04:04:56;;;;;;;2.12;1.67;;;;;;;-1.69;68.26;102506.45;1929006;74;21120;-58
2022/03/16 04:07:25;;;;;;;5.40;1.87;;;;;;;-1.45;68.06;102510.81;1928752;74;21046;-59
2022/03/16 04:09:53;;;;;;;7.22;2.85;;;;;;;-1.17;67.76;102514.03;1929661;74;21027;-60
2022/03/16 04:12:22;;;;;;;4.22;2.42;;;;;;;-0.83;67.67;102517.47;1932288;74;21078;-61
2022/03/16 04:14:51;;;;;;;4.85;2.58;;;;;;;-0.53;67.41;102521.97;1932397;74;21093;-60
2022/03/16 04:17:19;;;;;;;7.67;3.02;;;;;;;-0.27;67.03;102514.23;1931652;74;21046;-59
2022/03/16 04:19:48;;;;;;;4.08;1.62;;;;;;;0.02;66.84;102516.90;1931126;74;21055;-60
2022/03/16 04:22:16;;;;;;;5.35;2.75;;;;;;;0.15;65.87;102508.72;1926279;74;21066;-59
2022/03/16 04:24:45;;;;;;;7.25;2.55;;;;;;;0.25;65.68;102506.88;1926215;74;21489;-58
2022/03/16 04:27:14;;;;;;;5.45;2.80;;;;;;;0.37;64.90;102515.05;1926080;74;21118;-60
2022/03/16 04:29:42;;;;;;;3.42;1.75;;;;;;;0.54;64.58;102514.69;1926437;74;21062;-60
2022/03/16 04:32:32;;;;;;;5.85;3.08;;;;;;;0.76;63.28;102523.58;1926151;74;21104;-59
2022/03/16 04:35:00;;;;;;;6.42;2.58;;;;;;;0.99;63.11;102529.86;1889484;76;21027;-58
2022/03/16 04:37:29;;;;;;;7.00;2.85;;;;;;;1.25;63.18;102528.42;1889395;76;21123;-60
2022/03/16 04:39:58;;;;;;;5.95;2.62;;;;;;;1.47;62.22;102538.56;1889398;76;21051;-60
2022/03/16 04:42:26;;;;;;;3.12;1.80;;;;;;;1.67;61.47;102532.61;1889337;76;21016;-60
2022/03/16 04:44:55;;;;;;;5.53;2.55;;;;;;;2.00;61.20;102533.02;1889532;76;21515;-58
2022/03/16 04:47:24;;;;;;;4.47;2.45;;;;;;;2.15;60.03;102532.52;1889590;76;21134;-58
2022/03/16 04:49:52;;;;;;;4.70;2.92;;;;;;;2.37;60.46;102533.92;1889347;76;21131;-59
2022/03/16 04:52:21;;;;;;;6.80;2.15;;;;;;;2.47;60.23;102533.30;1889574;76;21169;-60
2022/03/16 04:54:50;;;;;;;8.33;3.35;;;;;;;2.40;57.86;102529.20;1889657;76;21494;-60
2022/03/16 04:57:18;;;;;;;4.08;2.37;;;;;;;2.49;57.23;102538.11;1889568;76;21024;-59
2022/03/16 04:59:47;;;;;;;7.03;3.02;;;;;;;2.65;54.98;102536.72;1889440;76;21153;-58
2022/03/16 05:02:15;;;;;;;5.60;2.30;;;;;;;2.76;55.67;102532.20;1889338;76;21076;-59
2022/03/16 05:04:44;;;;;;;5.87;2.15;;;;;;;2.90;55.17;102531.65;1889572;76;21099;-59
2022/03/16 05:07:13;;;;;;;3.77;2.37;;;;;;;3.25;55.76;102533.23;1889403;76;21106;-59
2022/03/16 05:09:42;;;;;;;7.17;2.55;;;;;;;3.43;53.85;102540.11;1889604;76;21022;-60
2022/03/16 05:12:11;;;;;;;5.65;2.92;;;;;;;3.50;53.96;102540.21;1889457;76;21042;-59
2022/03/16 05:14:39;;;;;;;5.72;3.20;;;;;;;3.65;53.13;102532.67;1889635;76;21047;-59
2022/03/16 05:17:08;;;;;;;5.33;2.72;;;;;;;3.88;53.39;102540.05;1889421;76;21168;-60
2022/03/16 05:19:37;;;;;;;5.10;2.75;;;;;;;4.09;52.69;102534.31;1889611;76;21062;-60
2022/03/16 05:22:06;;;;;;;4.30;2.90;;;;;;;4.14;52.03;102542.66;1889379;76;21058;-60
2022/03/16 05:24:34;;;;;;;4.40;2.55;;;;;;;4.31;51.65;102548.58;1889461;76;21046;-59
2022/03/16 05:27:03;;;;;;;3.80;2.75;;;;;;;4.49;51.14;102544.95;1889354;76;21088;-60
2022/03/16 05:29:32;;;;;;;8.05;4.03;;;;;;;4.63;50.32;102540.82;1889410;76;21117;-58
2022/03/16 05:32:00;;;;;;;7.28;4.95;;;;;;;4.70;50.15;102545.67;1889431;76;21046;-58
2022/03/16 05:34:29;;;;;;;9.78;4.08;;;;;;;4.81;49.39;102541.52;1889284;76;21079;-58
2022/03/16 05:36:58;;;;;;;7.20;3.55;;;;;;;5.05;49.71;102543.97;1889321;76;21547;-58
2022/03/16 05:39:26;;;;;;;6.62;3.65;;;;;;;5.20;48.96;102548.51;1888915;76;21485;-58
2022/03/16 05:41:55;;;;;;;8.95;3.37;;;;;;;5.43;48.46;102544.01;1889319;76;21079;-58
2022/03/16 05:44:24;;;;;;;7.15;3.85;;;;;;;5.61;48.32;102542.90;1889568;76;21496;-58
2022/03/16 05:46:54;;;;;;;6.95;3.87;;;;;;;5.88;48.24;102550.55;1889351;76;21023;-58
2022/03/16 05:49:25;;;;;;;5.58;2.70;;;;;;;6.09;47.34;102549.48;1889635;76;21225;-58
2022/03/16 05:51:53;;;;;;;12.95;3.22;;;;;;;6.18;46.11;102543.02;1889053;76;21050;-58
2022/03/16 05:54:22;;;;;;;7.25;3.52;;;;;;;6.23;46.34;102543.48;1889413;76;21176;-58
2022/03/16 05:56:50;;;;;;;5.20;3.22;;;;;;;6.45;46.12;102551.06;1889375;76;21140;-58
2022/03/16 05:59:19;;;;;;;8.60;2.45;;;;;;;6.65;45.65;102553.38;1889402;76;21047;-59
2022/03/16 06:01:47;;;;;;;6.55;3.27;;;;;;;6.93;45.56;102552.23;1889548;76;21058;-59
2022/03/16 06:04:16;;;;;;;7.10;3.30;;;;;;;7.09;45.38;102557.98;1889437;76;21082;-59
2022/03/16 06:06:45;;;;;;;5.45;2.80;;;;;;;7.17;43.73;102548.84;1889433;76;21046;-59
2022/03/16 06:09:13;;;;;;;9.75;4.80;;;;;;;7.02;43.16;102550.09;1889285;76;21120;-60
2022/03/16 06:11:42;;;;;;;4.87;3.15;;;;;;;7.14;43.17;102556.71;1895653;76;21167;-59
2022/03/16 06:14:11;;;;;;;9.03;4.65;;;;;;;7.54;43.68;102555.52;1895720;76;21119;-60
2022/03/16 06:16:39;;;;;;;6.62;3.45;;;;;;;7.84;42.90;102553.41;1895517;76;21042;-59
2022/03/16 06:19:08;;;;;;;7.33;3.50;;;;;;;8.04;43.22;102544.66;1895607;76;21050;-60
2022/03/16 06:21:36;;;;;;;4.78;3.15;;;;;;;8.14;42.66;102550.81;1895443;76;21159;-61
2022/03/16 06:24:06;;;;;;;8.18;3.42;;;;;;;8.38;42.33;102549.92;1895781;76;21046;-59
2022/03/16 06:26:35;;;;;;;5.53;3.35;;;;;;;8.30;41.47;102553.88;1895647;76;21088;-60
2022/03/16 06:29:04;;;;;;;4.75;2.15;;;;;;;8.23;41.37;102552.13;1895599;76;21050;-60
2022/03/16 06:31:33;;;;;;;7.72;3.47;;;;;;;8.53;42.02;102542.50;1895589;76;21489;-60
2022/03/16 06:34:01;;;;;;;6.53;2.85;;;;;;;8.41;41.46;102557.36;1895700;75;21500;-61
2022/03/16 06:36:30;;;;;;;3.25;2.22;;;;;;;8.61;40.70;102550.81;1895526;76;21105;-60
2022/03/16 06:38:59;;;;;;;7.28;2.75;;;;;;;8.77;40.63;102551.63;1895670;76;21030;-60
2022/03/16 06:41:28;;;;;;;11.20;3.80;;;;;;;8.71;39.93;102552.97;1895673;76;21038;-60
2022/03/16 06:43:56;;;;;;;6.37;3.22;;;;;;;8.98;40.08;102552.44;1895569;76;21010;-60
2022/03/16 06:46:27;;;;;;;3.62;2.55;;;;;;;9.50;40.34;102546.97;1895771;76;21117;-59
2022/03/16 06:48:55;;;;;;;9.20;3.65;;;;;;;9.70;38.34;102560.42;1895617;76;21113;-60
2022/03/16 06:51:24;;;;;;;6.65;3.12;;;;;;;9.79;38.02;102552.47;1895549;76;21125;-60
2022/03/16 06:53:53;;;;;;;6.65;3.98;;;;;;;10.42;38.32;102554.20;1895548;76;21158;-60
2022/03/16 06:56:21;;;;;;;4.53;2.52;;;;;;;10.80;37.36;102551.60;1895516;76;21140;-61
2022/03/16 06:58:51;;;;;;;6.47;2.87;;;;;;;10.81;35.95;102553.81;1895789;76;21022;-60
2022/03/16 07:01:20;;;;;;;7.08;3.08;;;;;;;10.97;36.15;102551.44;1895449;76;21559;-58
2022/03/16 07:03:48;;;;;;;3.30;2.17;;;;;;;11.17;34.84;102551.16;1895647;76;21054;-58
2022/03/16 07:06:17;;;;;;;4.87;2.33;;;;;;;11.03;34.25;102557.50;1895570;76;21018;-59
2022/03/16 07:08:47;;;;;;;6.97;2.83;;;;;;;11.17;35.07;102550.30;1895761;76;21531;-60
2022/03/16 07:11:17;;;;;;;5.42;1.55;;;;;;;11.54;34.80;102551.98;1890330;76;21516;-60
2022/03/16 07:14:30;;;;;;;6.97;2.40;;;;;;;11.63;32.88;102540.89;1889345;76;21101;-61
2022/03/16 07:16:16;;;;;;;2.67;1.60;;;;;;;11.51;32.71;102545.46;1884137;76;21066;-60
2022/03/16 07:18:45;;;;;;;2.12;1.52;;;;;;;11.53;32.37;102543.67;1889404;76;21055;-59
2022/03/16 07:21:13;;;;;;;2.62;1.60;;;;;;;11.40;32.46;102542.10;1889295;76;21124;-60
2022/03/16 07:23:42;;;;;;;9.73;2.30;;;;;;;11.52;31.82;102541.91;1889565;76;21057;-60
2022/03/16 07:26:11;;;;;;;9.03;3.20;;;;;;;11.16;32.35;102535.39;1889142;76;21215;-60
2022/03/16 07:28:39;;;;;;;3.25;2.02;;;;;;;11.57;32.81;102536.13;1889317;76;21183;-60
2022/03/16 07:31:09;;;;;;;1.92;1.25;;;;;;;11.53;31.89;102541.03;1889459;76;21023;-60
2022/03/16 07:33:38;;;;;;;3.45;1.85;;;;;;;11.42;32.05;102538.09;1889414;76;21046;-59
2022/03/16 07:36:07;;;;;;;6.65;1.90;;;;;;;11.41;30.99;102538.55;1870620;76;21071;-59
2022/03/16 07:38:36;;;;;;;4.47;2.30;;;;;;;11.58;30.49;102527.33;1859907;77;21202;-58
2022/03/16 07:41:05;;;;;;;3.50;1.40;;;;;;;11.67;30.29;102530.71;1859871;77;21520;-59
2022/03/16 07:43:34;;;;;;;1.90;1.20;;;;;;;11.35;29.61;102528.97;1859881;77;21454;-59
2022/03/16 07:46:03;;;;;;;4.12;2.25;;;;;;;10.51;30.59;102528.23;1859720;77;21153;-59
2022/03/16 07:48:34;;;;;;;2.70;1.40;;;;;;;10.43;30.76;102542.76;1859773;77;21478;-58
2022/03/16 07:51:02;;;;;;;3.20;1.85;;;;;;;10.55;30.98;102532.56;1859747;77;21094;-59
2022/03/16 07:53:31;;;;;;;4.40;2.02;;;;;;;11.14;31.21;102532.77;1859684;77;21507;-58
2022/03/16 07:56:00;;;;;;;8.25;2.65;;;;;;;11.83;30.76;102524.77;1859713;76;21495;-60
2022/03/16 07:58:29;;;;;;;4.53;2.35;;;;;;;11.28;31.33;102526.44;1859700;77;21578;-58
2022/03/16 08:00:57;;;;;;;3.50;1.90;;;;;;;10.34;32.27;102530.14;1859720;77;21054;-60
2022/03/16 08:03:27;;;;;;;4.55;2.47;;;;;;;9.03;33.16;102521.77;1859785;77;21142;-59
2022/03/16 08:05:56;;;;;;;8.65;2.22;;;;;;;8.72;34.00;102520.55;1859769;77;21072;-58
2022/03/16 08:08:25;;;;;;;4.80;1.80;;;;;;;8.00;34.68;102534.61;1859817;77;21097;-57
2022/03/16 08:10:54;;;;;;;3.58;1.75;;;;;;;7.76;35.37;102528.04;1859950;77;21539;-60
2022/03/16 08:13:22;;;;;;;21.52;9.88;;;;;;;9.49;34.41;102528.11;1859689;77;21449;-59
2022/03/16 08:15:51;;;;;;;4.70;2.27;;;;;;;10.26;32.89;102521.42;1859774;77;21529;-58
2022/03/16 08:18:20;;;;;;;5.17;2.15;;;;;;;10.00;33.46;102523.38;1859813;77;21047;-59
2022/03/16 08:20:48;;;;;;;4.53;1.80;;;;;;;9.20;34.03;102520.38;1859902;77;21054;-59
2022/03/16 08:23:17;;;;;;;3.30;1.95;;;;;;;8.34;34.33;102524.12;1859959;77;21019;-59
2022/03/16 08:25:47;;;;;;;5.95;2.80;;;;;;;7.40;35.14;102519.25;1859981;77;21102;-59
2022/03/16 08:28:16;;;;;;;3.50;1.50;;;;;;;6.59;36.14;102525.00;1859958;77;21156;-60
2022/03/16 08:30:44;;;;;;;9.03;4.17;;;;;;;6.68;36.70;102520.69;1859846;77;21588;-62
2022/03/16 08:33:13;;;;;;;5.17;2.87;;;;;;;6.22;36.86;102530.84;1859857;77;21064;-57
2022/03/16 08:35:42;;;;;;;6.60;2.17;;;;;;;5.82;37.03;102534.38;1864079;76;21086;-58
2022/03/16 08:38:10;;;;;;;3.20;1.95;;;;;;;5.26;37.55;102530.77;1886262;76;21109;-57
2022/03/16 08:40:39;;;;;;;4.37;2.15;;;;;;;4.91;38.06;102541.64;1886395;76;21015;-58
2022/03/16 08:43:07;;;;;;;3.42;2.25;;;;;;;4.64;38.36;102536.03;1886319;76;21026;-57
2022/03/16 08:45:37;;;;;;;7.17;2.27;;;;;;;4.81;38.57;102534.98;1886236;76;21739;-58
2022/03/16 08:48:06;;;;;;;1.40;1.20;;;;;;;6.61;37.77;102527.19;1886292;76;21559;-59
2022/03/16 08:50:35;;;;;;;2.85;1.40;;;;;;;7.72;36.21;102529.33;1886429;76;21031;-58
2022/03/16 08:53:03;;;;;;;5.20;2.27;;;;;;;8.84;34.73;102517.91;1886289;76;21011;-57
2022/03/16 08:55:32;;;;;;;10.18;2.30;;;;;;;9.27;34.03;102515.08;1886519;76;21042;-57
2022/03/16 08:58:00;;;;;;;7.22;2.77;;;;;;;8.25;34.44;102522.37;1886252;76;21132;-58
2022/03/16 09:00:29;;;;;;;5.78;2.55;;;;;;;7.51;35.47;102522.77;1886534;76;21058;-57
2022/03/16 09:02:58;;;;;;;8.00;2.20;;;;;;;6.81;36.71;102535.16;1886280;76;21521;-57
2022/03/16 09:05:27;;;;;;;2.22;1.80;;;;;;;6.32;37.52;102530.48;1886320;76;21488;-57
2022/03/16 09:07:56;;;;;;;8.73;3.00;;;;;;;5.77;37.93;102533.05;1886278;76;21540;-57
2022/03/16 09:10:24;;;;;;;5.72;2.70;;;;;;;5.35;38.89;102530.87;1870993;76;21529;-58
2022/03/16 09:12:53;;;;;;;8.03;2.62;;;;;;;5.13;39.60;102535.83;1854910;77;21052;-57
2022/03/16 09:15:22;;;;;;;4.55;2.15;;;;;;;5.06;39.94;102533.12;1854944;77;21517;-59
2022/03/16 09:17:52;;;;;;;4.78;2.52;;;;;;;4.97;40.16;102535.18;1854762;77;21036;-58
2022/03/16 09:20:21;;;;;;;6.25;2.75;;;;;;;4.74;40.57;102538.37;1854747;77;21550;-60
2022/03/16 09:22:50;;;;;;;7.80;2.87;;;;;;;4.74;40.60;102529.64;1854804;77;21451;-60
2022/03/16 09:25:19;;;;;;;6.30;2.35;;;;;;;4.75;40.49;102532.27;1854662;77;21131;-60
2022/03/16 09:27:47;;;;;;;3.67;1.70;;;;;;;5.17;40.32;102534.13;1854636;77;21491;-60
2022/03/16 09:30:16;;;;;;;4.60;2.00;;;;;;;4.84;39.15;102530.23;1854942;77;21108;-59
2022/03/16 09:32:45;;;;;;;3.65;2.00;;;;;;;4.56;39.76;102532.45;1854656;77;21068;-60
2022/03/16 09:35:13;;;;;;;4.35;1.75;;;;;;;6.07;39.30;102534.22;1854805;77;21096;-60
2022/03/16 09:37:42;;;;;;;4.75;2.37;;;;;;;7.74;37.54;102528.90;1877924;76;21156;-61
2022/03/16 09:40:11;;;;;;;7.37;2.15;;;;;;;8.56;36.16;102522.78;1889971;76;21133;-59
2022/03/16 09:42:40;;;;;;;9.45;2.12;;;;;;;9.65;35.23;102511.36;1890075;76;21073;-59
2022/03/16 09:45:11;;;;;;;2.30;1.75;;;;;;;9.32;35.57;102520.33;1890019;76;21066;-58
2022/03/16 09:47:39;;;;;;;5.53;2.87;;;;;;;8.97;35.23;102515.23;1889104;76;21023;-59
2022/03/16 09:50:09;;;;;;;2.72;1.57;;;;;;;9.32;34.64;102515.52;1889899;76;21047;-60
2022/03/16 09:52:40;;;;;;;4.83;2.10;;;;;;;9.52;34.93;102516.72;1890052;76;21129;-60
2022/03/16 09:55:09;;;;;;;4.80;2.10;;;;;;;8.31;35.01;102514.48;1890165;76;21038;-60
2022/03/16 09:57:57;;;;;;;4.65;2.02;;;;;;;7.66;35.66;102517.54;1887471;76;21062;-60
2022/03/16 10:00:26;;;;;;;4.35;2.52;;;;;;;8.29;35.32;102515.37;1802950;79;21576;-59
2022/03/16 10:02:55;;;;;;;5.10;2.40;;;;;;;7.80;35.06;102511.42;1822666;79;21607;-58
2022/03/16 10:05:27;;;;;;;2.83;1.70;;;;;;;7.37;35.68;102513.54;1817923;79;21138;-58
2022/03/16 10:07:59;;;;;;;6.15;1.95;;;;;;;7.26;35.99;102516.56;1814757;79;21062;-58
2022/03/16 10:13:22;;;;;;;4.25;2.12;;;;;;;8.24;35.70;102511.87;1814621;79;21087;-57
2022/03/16 10:15:56;;;;;;;5.20;2.00;;;;;;;7.73;35.84;102504.87;1813909;79;21556;-57
2022/03/16 10:18:24;;;;;;;4.85;2.00;;;;;;;6.99;36.12;102500.31;1811887;79;21059;-58
2022/03/16 10:20:54;;;;;;;4.60;2.00;;;;;;;6.36;36.77;102506.08;1813848;79;21086;-59
2022/03/16 10:23:26;;;;;;;10.68;2.60;;;;;;;5.70;37.29;102501.17;1813734;79;21125;-59
2022/03/16 10:25:57;;;;;;;3.08;2.05;;;;;;;5.26;38.10;102496.81;1813814;79;21066;-58
2022/03/16 10:28:27;;;;;;;11.15;2.98;;;;;;;5.18;38.56;102500.61;1813768;79;21469;-57
2022/03/16 10:30:59;;;;;;;3.92;1.85;;;;;;;5.38;38.57;102493.00;1813907;79;21066;-58
2022/03/16 10:33:33;;;;;;;3.27;2.10;;;;;;;5.47;38.49;102496.15;1813826;79;21050;-58
2022/03/16 10:36:07;;;;;;;6.83;2.42;;;;;;;5.65;38.21;102491.10;1813917;79;21082;-57
2022/03/16 10:38:42;;;;;;;;;;;;;;;5.68;38.06;102487.22;1816532;79;21042;-59
2022/03/16 10:46:34;;;;;;;4.47;1.40;;;;;;;5.70;38.47;102485.50;1813908;79;21604;-60
2022/03/16 10:49:09;;;;;;;3.70;2.42;;;;;;;5.52;38.32;102477.48;1821607;79;21491;-61
2022/03/16 10:51:39;;;;;;;6.33;3.08;;;;;;;5.08;38.46;102476.13;1814102;79;21500;-61
2022/03/16 10:54:07;;;;;;;4.08;2.22;;;;;;;5.09;39.03;102470.07;1812284;79;21534;-61
2022/03/16 10:56:39;;;;;;;5.12;2.40;;;;;;;6.22;38.83;102472.43;1805626;79;21059;-61
2022/03/16 10:59:08;;;;;;;4.35;2.50;;;;;;;7.45;37.68;102471.63;1815196;78;21081;-63
2022/03/16 11:01:38;;;;;;;8.45;3.17;;;;;;;8.29;36.49;102456.31;1797745;78;21265;-63
2022/03/16 11:04:08;;;;;;;3.92;1.95;;;;;;;8.22;36.29;102460.69;1803622;79;21591;-63
2022/03/16 11:06:37;;;;;;;4.92;2.17;;;;;;;7.65;36.16;102461.16;1789457;79;21170;-63
2022/03/16 11:09:09;;;;;;;3.80;2.10;;;;;;;6.63;36.41;102473.97;1805271;78;21094;-62
2022/03/16 11:14:27;;;;;;;4.37;2.52;;;;;;;5.66;38.00;102469.31;1820571;79;21131;-62
2022/03/16 11:16:57;;;;;;;3.80;2.72;;;;;;;6.03;36.74;102468.78;1820760;79;21129;-64
2022/03/16 11:19:26;;;;;;;9.83;4.40;;;;;;;5.99;36.54;102464.86;1820541;79;21082;-61
2022/03/16 11:22:04;;;;;;;5.22;2.17;;;;;;;5.69;36.88;102464.56;1820744;79;21034;-60
2022/03/16 11:24:35;;;;;;;3.37;2.37;;;;;;;5.32;37.10;102459.86;1814754;79;21623;-59
2022/03/16 11:27:20;;;;;;;4.75;2.92;;;;;;;5.19;37.75;102460.59;1795865;79;21091;-58
2022/03/16 11:30:14;;;;;;;5.72;2.30;;;;;;;5.13;38.06;102464.02;1800265;79;21071;-59
2022/03/16 11:32:46;;;;;;;9.03;2.92;;;;;;;5.15;38.48;102464.03;1790304;79;21218;-58
2022/03/16 11:35:16;;;;;;;3.98;2.22;;;;;;;4.98;38.49;102457.30;1789994;79;21095;-58
2022/03/16 11:37:52;;;;;;;4.75;2.35;;;;;;;4.85;38.76;102454.99;1820252;79;21149;-59
2022/03/16 11:40:24;;;;;;;4.80;2.25;;;;;;;4.61;39.04;102459.05;1820285;79;21066;-62
2022/03/16 11:43:05;;;;;;;4.25;1.65;;;;;;;4.46;39.25;102461.42;1820672;79;21454;-61
2022/03/16 11:45:46;;;;;;;5.05;2.67;;;;;;;4.40;39.60;102458.73;1820610;79;21070;-61
2022/03/16 11:48:33;;;;;;;6.50;2.77;;;;;;;4.39;39.80;102453.05;1820654;79;21042;-62
2022/03/16 11:51:18;;;;;;;4.62;2.50;;;;;;;4.49;39.87;102457.56;1820659;79;21169;-62
2022/03/16 11:56:31;;;;;;;9.25;1.40;;;;;;;4.10;40.11;102454.83;1793615;80;21066;-62